Aegean Clover — 7JXV — position and weather

sailwx.info

Track history (hours):
 
Tides and Currents Weather Stations Pressure Air Temp Water Temp Dewpoint Dewpoint Depression Visibility Wind Speed Wind Dir Waves Ship Positions

Aegean Clover

Last reported at 2017-Dec-13 11:35 UTC. Time now 2018-Jan-20 02:48 UTC.
Position N 33°46' E 134°59'.
Warning: this ship's position is 37 days out of date.

Length 299 m; draft 9.9 m.

Type: Cargo ship. MMSI: 431398000.

Date/timePositionNaut miles runAvg speedWind from/ knotsBaromVisibWave heightAir tempDewpointWater temp
2017-Dec-13 11:35N 33°46' E 134°59'115.7
2017-Dec-13 11:31N 33°47' E 134°58'815.2
2017-Dec-13 11:00N 33°55' E 134°57'815.1
2017-Dec-13 10:30N 34°02' E 134°57'714.6
2017-Dec-13 10:00N 34°10' E 134°57'611.6
2017-Dec-13 09:30N 34°16' E 134°58'714.5
2017-Dec-13 09:01N 34°23' E 135°00'714.4
2017-Dec-13 08:31N 34°29' E 135°04'510.7
2017-Dec-13 08:01N 34°34' E 135°07'5 9.5
2017-Dec-13 07:31N 34°36' E 135°02'510.4
2017-Dec-13 07:01N 34°36' E 134°55'611.9
2017-Dec-13 06:30N 34°33' E 134°49'713.1
2017-Dec-13 06:00N 34°30' E 134°42'714.5
2017-Dec-13 05:30N 34°28' E 134°34'714.5
2017-Dec-13 05:00N 34°25' E 134°26'814.5
2017-Dec-13 04:29N 34°24' E 134°16'  
Track history (hours):
 
Tides and Currents Weather Stations Pressure Air Temp Water Temp Dewpoint Dewpoint Depression Visibility Wind Speed Wind Dir Waves Ship Positions

Aegean Clover

Last reported at 2017-Dec-13 11:35 UTC. Time now 2018-Jan-20 02:48 UTC.
Position N 33°46' E 134°59'.
Warning: this ship's position is 37 days out of date.

Length 299 m; draft 9.9 m.

Type: Cargo ship. MMSI: 431398000.

Date/timePositionNaut miles runAvg speedWind from/ knotsBaromVisibWave heightAir tempDewpointWater temp
2017-Dec-13 11:35N 33°46' E 134°59'115.7
2017-Dec-13 11:31N 33°47' E 134°58'815.2
2017-Dec-13 11:00N 33°55' E 134°57'815.1
2017-Dec-13 10:30N 34°02' E 134°57'714.6
2017-Dec-13 10:00N 34°10' E 134°57'611.6
2017-Dec-13 09:30N 34°16' E 134°58'714.5
2017-Dec-13 09:01N 34°23' E 135°00'714.4
2017-Dec-13 08:31N 34°29' E 135°04'510.7
2017-Dec-13 08:01N 34°34' E 135°07'5 9.5
2017-Dec-13 07:31N 34°36' E 135°02'510.4
2017-Dec-13 07:01N 34°36' E 134°55'611.9
2017-Dec-13 06:30N 34°33' E 134°49'713.1
2017-Dec-13 06:00N 34°30' E 134°42'714.5
2017-Dec-13 05:30N 34°28' E 134°34'714.5
2017-Dec-13 05:00N 34°25' E 134°26'814.5
2017-Dec-13 04:29N 34°24' E 134°16'  

Dump ship's entire track history